createdAt,value
2018-09-05T00:00:37.416Z,94778.35
2018-09-05T00:03:08.147Z,94780.32
2018-09-05T00:05:38.815Z,94781.28
2018-09-05T00:08:09.511Z,94780.27
2018-09-05T00:10:40.242Z,94783.38
2018-09-05T00:13:10.703Z,94782.82
2018-09-05T00:15:41.218Z,94786.73
2018-09-05T00:18:11.954Z,94793.38
2018-09-05T00:20:42.265Z,94782.69
2018-09-05T00:23:13.909Z,94785.28
2018-09-05T00:25:44.633Z,94785.91
2018-09-05T00:28:15.282Z,94797.14
2018-09-05T00:30:45.655Z,94798.45
2018-09-05T00:33:17.501Z,94790.54
2018-09-05T00:35:48.044Z,94810.94
2018-09-05T00:38:18.335Z,94800.47
2018-09-05T00:40:48.925Z,94800.23
2018-09-05T00:43:20.539Z,94799.32
2018-09-05T00:45:50.998Z,94809.28
2018-09-05T00:48:21.558Z,94810.78
2018-09-05T00:50:51.991Z,94805.62
2018-09-05T00:53:23.434Z,94806.83
2018-09-05T00:55:53.928Z,94800.11
2018-09-05T00:58:24.610Z,94799.19
2018-09-05T01:00:55.126Z,94798.95
2018-09-05T01:03:26.050Z,94798.56
2018-09-05T01:05:56.585Z,94798.92
2018-09-05T01:08:26.989Z,94797.73
2018-09-05T01:10:57.730Z,94798.66
2018-09-05T01:13:29.495Z,94803.91
2018-09-05T01:16:00.139Z,94800.77
2018-09-05T01:18:30.649Z,94801.66
2018-09-05T01:21:01.256Z,94799.19
2018-09-05T01:23:32.138Z,94798.73
2018-09-05T01:26:02.761Z,94801.89
2018-09-05T01:28:32.859Z,94805.12
2018-09-05T01:31:03.427Z,94803.44
2018-09-05T01:33:37.060Z,94799.63
2018-09-05T01:36:13.369Z,94799.73
2018-09-05T01:38:44.439Z,94799.81
2018-09-05T01:41:15.558Z,94803.10
2018-09-05T01:43:47.025Z,94810.59
2018-09-05T01:46:17.723Z,94802.48
2018-09-05T01:48:48.122Z,94812.20
2018-09-05T01:51:18.595Z,94801.42
2018-09-05T01:53:50.443Z,94801.59
2018-09-05T01:56:20.834Z,94807.66
2018-09-05T01:58:51.209Z,94808.16
2018-09-05T02:01:22.032Z,94810.89
2018-09-05T02:03:52.330Z,94802.44
2018-09-05T02:06:22.787Z,94798.93
2018-09-05T02:08:53.089Z,94805.91
2018-09-05T02:11:24.332Z,94806.21
2018-09-05T02:13:55.481Z,94804.25
2018-09-05T02:16:25.714Z,94805.39
2018-09-05T02:18:56.208Z,94813.25
2018-09-05T02:21:26.674Z,94808.06
2018-09-05T02:23:57.628Z,94804.98
2018-09-05T02:26:28.226Z,94806.16
2018-09-05T02:28:58.578Z,94806.32
2018-09-05T02:31:29.234Z,94807.91
2018-09-05T02:34:00.202Z,94808.81
2018-09-05T02:36:30.539Z,94805.98
2018-09-05T02:39:01.103Z,94816.11
2018-09-05T02:41:31.514Z,94816.31
2018-09-05T02:44:32.754Z,94815.63
2018-09-05T02:47:03.123Z,94821.23
2018-09-05T02:49:33.906Z,94820.68
2018-09-05T02:52:04.452Z,94818.20
2018-09-05T02:54:35.096Z,94811.75
2018-09-05T02:57:05.539Z,94820.66
2018-09-05T02:59:36.521Z,94826.06
2018-09-05T03:02:07.119Z,94823.13
2018-09-05T03:04:37.378Z,94821.38
2018-09-05T03:07:07.907Z,94817.56
2018-09-05T03:09:38.494Z,94823.60
2018-09-05T03:12:09.533Z,94827.53
2018-09-05T03:14:40.075Z,94823.13
2018-09-05T03:17:10.660Z,94832.27
2018-09-05T03:19:41.684Z,94828.02
2018-09-05T03:22:13.411Z,94828.31
2018-09-05T03:24:43.853Z,94829.11
2018-09-05T03:27:14.029Z,94829.49
2018-09-05T03:29:44.729Z,94828.13
2018-09-05T03:32:15.542Z,94825.92
2018-09-05T03:34:45.952Z,94830.09
2018-09-05T03:37:16.457Z,94832.58
2018-09-05T03:39:47.132Z,94831.55
2018-09-05T03:42:18.730Z,94831.49
2018-09-05T03:44:49.630Z,94833.66
2018-09-05T03:47:20.026Z,94836.20
2018-09-05T03:49:50.616Z,94837.45
2018-09-05T03:52:21.138Z,94848.50
2018-09-05T03:54:51.377Z,94842.63
2018-09-05T03:57:21.472Z,94839.41
2018-09-05T03:59:51.751Z,94842.42
2018-09-05T04:02:23.072Z,94842.75
2018-09-05T04:04:53.845Z,94849.66
2018-09-05T04:07:24.294Z,94853.72
2018-09-05T04:09:55.220Z,94851.34
2018-09-05T04:12:27.480Z,94850.84
2018-09-05T04:14:57.838Z,94853.48
2018-09-05T04:17:28.275Z,94851.25
2018-09-05T04:19:58.881Z,94855.17
2018-09-05T04:22:30.294Z,94853.48
2018-09-05T04:25:00.995Z,94855.30
2018-09-05T04:27:31.701Z,94856.73
2018-09-05T04:30:02.227Z,94862.02
2018-09-05T04:32:32.558Z,94856.47
2018-09-05T04:35:03.244Z,94860.85
2018-09-05T04:37:33.633Z,94869.80
2018-09-05T04:40:04.333Z,94875.09
2018-09-05T04:42:36.182Z,94874.84
2018-09-05T04:45:07.385Z,94881.90
2018-09-05T04:47:38.134Z,94884.03
2018-09-05T04:50:08.387Z,94878.53
2018-09-05T04:52:39.412Z,94884.23
2018-09-05T04:55:09.907Z,94875.79
2018-09-05T04:57:40.299Z,94874.83
2018-09-05T05:00:10.759Z,94877.77
2018-09-05T05:02:41.160Z,94872.28
2018-09-05T05:05:11.775Z,94871.66
2018-09-05T05:07:42.251Z,94645.73
2018-09-05T05:10:12.911Z,94874.53
2018-09-05T05:12:44.556Z,94874.58
2018-09-05T05:15:15.378Z,94879.78
2018-09-05T05:17:46.061Z,94873.77
2018-09-05T05:20:16.662Z,94869.30
2018-09-05T05:22:47.271Z,94875.37
2018-09-05T05:25:17.857Z,94867.09
2018-09-05T05:27:48.502Z,94870.84
2018-09-05T05:30:19.197Z,94869.95
2018-09-05T05:32:50.890Z,94867.59
2018-09-05T05:35:21.462Z,94870.06
2018-09-05T05:37:52.090Z,94873.74
2018-09-05T05:40:22.636Z,94874.64
2018-09-05T05:42:53.379Z,94866.08
2018-09-05T05:45:24.022Z,94869.84
2018-09-05T05:47:54.443Z,94878.22
2018-09-05T05:50:24.845Z,94882.23
2018-09-05T05:52:56.182Z,94882.92
2018-09-05T05:55:26.811Z,94880.89
2018-09-05T05:57:57.419Z,94885.27
2018-09-05T06:00:27.957Z,94876.81
2018-09-05T06:02:58.739Z,94873.48
2018-09-05T06:05:28.610Z,94867.45
2018-09-05T06:07:58.363Z,94872.56
2018-09-05T06:10:28.873Z,94864.82
2018-09-05T06:12:59.456Z,94872.95
2018-09-05T06:15:29.788Z,94872.00
2018-09-05T06:17:59.782Z,94869.98
2018-09-05T06:20:29.486Z,94871.02
2018-09-05T06:22:59.516Z,94874.82
2018-09-05T06:25:29.368Z,94868.25
2018-09-05T06:27:59.370Z,94870.19
2018-09-05T06:30:29.356Z,94869.95
2018-09-05T06:32:59.443Z,94869.33
2018-09-05T06:35:29.194Z,94862.19
2018-09-05T06:37:59.206Z,94865.27
2018-09-05T06:40:29.122Z,94864.30
2018-09-05T06:42:58.987Z,94863.92
2018-09-05T06:45:28.835Z,94866.80
2018-09-05T06:47:58.603Z,94858.64
2018-09-05T06:50:28.449Z,94863.80
2018-09-05T06:52:58.138Z,94857.14
2018-09-05T06:55:27.906Z,94856.36
2018-09-05T06:57:57.944Z,94851.39
2018-09-05T07:00:28.782Z,94849.69
2018-09-05T07:03:00.254Z,94837.64
2018-09-05T07:05:30.941Z,94845.80
2018-09-05T07:08:01.227Z,94846.22
2018-09-05T07:10:31.659Z,94841.33
2018-09-05T07:13:03.097Z,94844.06
2018-09-05T07:15:33.895Z,94839.84
2018-09-05T07:18:04.306Z,94841.84
2018-09-05T07:20:34.447Z,94843.80
2018-09-05T07:23:05.824Z,94845.00
2018-09-05T07:25:36.526Z,94850.02
2018-09-05T07:28:07.108Z,94850.86
2018-09-05T07:30:37.792Z,94841.89
2018-09-05T07:33:08.490Z,94849.55
2018-09-05T07:35:38.314Z,94848.30
2018-09-05T07:38:08.249Z,94844.05
2018-09-05T07:40:38.123Z,94842.50
2018-09-05T07:43:08.059Z,94842.55
2018-09-05T07:45:38.419Z,94835.44
2018-09-05T07:48:08.222Z,94835.75
2018-09-05T07:50:38.083Z,94823.69
2018-09-05T07:53:07.916Z,94818.30
2018-09-05T07:55:37.600Z,94828.81
2018-09-05T07:58:07.438Z,94820.53
2018-09-05T08:00:37.219Z,94823.53
2018-09-05T08:03:07.052Z,94818.73
2018-09-05T08:06:27.032Z,94813.10
2018-09-05T08:08:57.548Z,94810.37
2018-09-05T08:11:28.401Z,94810.39
2018-09-05T08:13:59.261Z,94809.70
2018-09-05T08:16:29.952Z,94802.55
2018-09-05T08:19:00.524Z,94795.92
2018-09-05T08:21:30.959Z,94790.76
2018-09-05T08:24:01.497Z,94784.19
2018-09-05T08:26:31.908Z,94791.13
2018-09-05T08:29:02.547Z,94787.48
2018-09-05T08:31:32.935Z,94783.94
2018-09-05T08:34:03.771Z,94781.66
2018-09-05T08:36:34.611Z,94772.17
2018-09-05T08:39:05.620Z,94768.63
2018-09-05T08:41:36.019Z,94760.48
2018-09-05T08:44:06.587Z,94754.82
2018-09-05T08:46:36.893Z,94753.36
2018-09-05T08:49:07.637Z,94759.67
2018-09-05T08:51:37.917Z,94719.83
2018-09-05T08:54:09.673Z,94756.98
2018-09-05T08:56:40.172Z,94750.15
2018-09-05T08:59:10.949Z,94737.96
2018-09-05T09:01:41.262Z,94738.97
2018-09-05T09:04:12.083Z,94730.67
2018-09-05T09:06:42.795Z,94731.77
2018-09-05T09:09:13.625Z,94725.40
2018-09-05T09:11:50.867Z,94725.72
2018-09-05T09:14:22.086Z,94725.09
2018-09-05T09:16:53.007Z,94721.92
2018-09-05T09:19:23.587Z,94725.75
2018-09-05T09:21:54.114Z,94723.34
2018-09-05T09:24:25.267Z,94728.84
2018-09-05T09:26:55.917Z,94730.73
2018-09-05T09:29:26.526Z,94738.44
2018-09-05T09:31:57.138Z,94733.11
2018-09-05T09:34:28.565Z,94729.56
2018-09-05T09:36:59.059Z,94726.05
2018-09-05T09:39:29.427Z,94729.98
2018-09-05T09:41:59.849Z,94724.69
2018-09-05T09:44:30.773Z,94724.02
2018-09-05T09:47:01.458Z,94716.72
2018-09-05T09:49:31.871Z,94712.56
2018-09-05T09:52:07.147Z,94708.58
2018-09-05T09:54:38.788Z,94703.77
2018-09-05T09:57:09.345Z,94699.39
2018-09-05T09:59:39.987Z,94693.81
2018-09-05T10:02:15.444Z,94696.58
2018-09-05T10:04:51.623Z,94697.74
2018-09-05T10:07:27.370Z,94689.23
2018-09-05T10:11:05.236Z,94695.40
2018-09-05T10:13:40.922Z,94689.19
2018-09-05T10:16:16.365Z,94680.91
2018-09-05T10:18:48.839Z,94684.56
2018-09-05T10:21:19.375Z,94672.25
2018-09-05T10:23:51.189Z,94672.33
2018-09-05T10:26:21.716Z,94665.53
2018-09-05T10:28:52.422Z,94658.85
2018-09-05T10:31:23.178Z,94655.42
2018-09-05T10:33:53.724Z,94655.60
2018-09-05T10:36:24.376Z,94654.61
2018-09-05T10:38:54.583Z,94648.72
2018-09-05T10:41:25.315Z,94651.10
2018-09-05T10:43:56.733Z,94642.00
2018-09-05T10:46:27.236Z,94650.43
2018-09-05T10:48:57.989Z,94647.61
2018-09-05T10:51:33.279Z,94652.59
2018-09-05T10:54:04.510Z,94655.77
2018-09-05T10:56:35.343Z,94645.02
2018-09-05T10:59:06.162Z,94653.19
2018-09-05T11:01:36.903Z,94647.65
2018-09-05T11:04:08.634Z,94640.81
2018-09-05T11:06:39.339Z,94643.20
2018-09-05T11:09:12.019Z,94640.13
2018-09-05T11:11:42.998Z,94643.54
2018-09-05T11:14:14.338Z,94629.93
2018-09-05T11:16:44.773Z,94637.73
2018-09-05T11:19:14.965Z,94627.16
2018-09-05T11:21:45.781Z,94623.55
2018-09-05T11:24:17.350Z,94626.25
2018-09-05T11:26:47.994Z,94619.57
2018-09-05T11:29:18.876Z,94613.64
2018-09-05T11:31:49.611Z,94608.51
2018-09-05T11:34:20.749Z,94604.64
2018-09-05T11:36:51.206Z,94604.00
2018-09-05T11:39:21.710Z,94608.75
2018-09-05T11:41:51.797Z,94608.27
2018-09-05T11:44:23.022Z,94594.97
2018-09-05T11:46:53.503Z,94598.25
2018-09-05T11:49:24.435Z,94587.01
2018-09-05T11:51:54.754Z,94593.25
2018-09-05T11:54:25.567Z,94583.23
2018-09-05T11:56:56.018Z,94584.85
2018-09-05T11:59:26.634Z,94575.51
2018-09-05T12:01:57.355Z,94572.09
2018-09-05T12:04:28.715Z,94565.52
2018-09-05T12:06:59.527Z,94559.92
2018-09-05T12:09:29.978Z,94576.48
2018-09-05T12:12:00.583Z,94574.07
2018-09-05T12:14:32.182Z,94570.07
2018-09-05T12:17:02.448Z,94557.48
2018-09-05T12:19:32.630Z,94573.75
2018-09-05T12:22:02.912Z,94564.91
2018-09-05T12:24:33.227Z,94568.56
2018-09-05T12:27:03.858Z,94574.80
2018-09-05T12:29:34.157Z,94574.15
2018-09-05T12:32:05.120Z,94581.48
2018-09-05T12:34:36.060Z,94570.27
2018-09-05T12:37:06.594Z,94594.36
2018-09-05T12:39:37.029Z,94598.95
2018-09-05T12:42:07.802Z,94592.10
2018-09-05T12:44:38.757Z,94607.38
2018-09-05T12:47:09.231Z,94602.09
2018-09-05T12:49:40.126Z,94600.23
2018-09-05T12:52:10.490Z,94605.77
2018-09-05T12:54:41.947Z,94603.46
2018-09-05T12:57:12.446Z,94610.58
2018-09-05T12:59:42.959Z,94614.66
2018-09-05T13:02:13.614Z,94613.34
2018-09-05T13:04:44.749Z,94614.36
2018-09-05T13:07:15.580Z,94614.59
2018-09-05T13:09:45.654Z,94615.99
2018-09-05T13:12:16.105Z,94625.01
2018-09-05T13:14:47.115Z,94636.63
2018-09-05T13:17:17.589Z,94643.41
2018-09-05T13:19:48.100Z,94659.34
2018-09-05T13:22:18.371Z,94678.83
2018-09-05T13:24:49.265Z,94687.95
2018-09-05T13:27:19.834Z,94697.29
2018-09-05T13:29:50.098Z,94712.42
2018-09-05T13:32:20.662Z,94707.16
2018-09-05T13:34:51.415Z,94705.25
2018-09-05T13:37:21.941Z,94698.19
2018-09-05T13:39:52.861Z,94711.44
2018-09-05T13:42:23.229Z,94707.50
2018-09-05T13:44:54.294Z,94715.05
2018-09-05T13:47:24.627Z,94716.90
2018-09-05T13:49:54.348Z,94725.11
2018-09-05T13:52:24.178Z,94741.23
2018-09-05T13:54:54.803Z,94742.94
2018-09-05T13:57:55.455Z,94761.48
2018-09-05T14:00:25.286Z,94761.30
2018-09-05T14:02:55.208Z,94761.66
2018-09-05T14:05:25.147Z,94777.26
2018-09-05T14:07:54.966Z,94767.88
2018-09-05T14:10:24.861Z,94766.30
2018-09-05T14:12:54.755Z,94770.13
2018-09-05T14:15:24.585Z,94772.77
2018-09-05T14:17:54.264Z,94779.80
2018-09-05T14:20:24.147Z,94778.46
2018-09-05T14:22:53.903Z,94778.09
2018-09-05T14:25:23.747Z,94761.50
2018-09-05T14:27:53.563Z,94770.59
2018-09-05T14:30:23.332Z,94763.14
2018-09-05T14:32:53.284Z,94773.53
2018-09-05T14:35:23.023Z,94778.86
2018-09-05T14:37:52.806Z,94771.81
2018-09-05T14:40:22.437Z,94760.16
2018-09-05T14:42:52.215Z,94762.88
2018-09-05T14:45:21.918Z,94775.88
2018-09-05T14:47:51.594Z,94770.13
2018-09-05T14:50:22.038Z,94774.90
2018-09-05T14:52:51.824Z,94774.52
2018-09-05T14:55:21.700Z,94777.44
2018-09-05T14:57:51.498Z,94780.75
2018-09-05T15:00:21.286Z,94783.50
2018-09-05T15:02:51.208Z,94784.39
2018-09-05T15:05:21.034Z,94790.77
2018-09-05T15:07:51.949Z,94794.65
2018-09-05T15:10:21.735Z,94782.96
2018-09-05T15:12:52.222Z,94789.11
2018-09-05T15:15:22.107Z,94800.39
2018-09-05T15:17:51.940Z,94797.53
2018-09-05T15:20:21.776Z,94796.69
2018-09-05T15:22:51.628Z,94803.02
2018-09-05T15:25:21.441Z,94800.66
2018-09-05T15:27:51.060Z,94798.59
2018-09-05T15:30:20.846Z,94797.62
2018-09-05T15:32:50.674Z,94803.22
2018-09-05T15:35:20.537Z,94804.63
2018-09-05T15:37:50.362Z,94797.98
2018-09-05T15:40:20.210Z,94800.12
2018-09-05T15:42:49.886Z,94802.53
2018-09-05T15:45:19.728Z,94802.89
2018-09-05T15:47:49.502Z,94799.91
2018-09-05T15:50:19.251Z,94807.56
2018-09-05T15:52:49.206Z,94812.34
2018-09-05T15:55:19.236Z,94815.03
2018-09-05T15:57:49.044Z,94821.13
2018-09-05T16:00:18.768Z,94816.98
2018-09-05T16:02:48.606Z,94818.84
2018-09-05T16:05:18.205Z,94810.42
2018-09-05T16:07:48.019Z,94816.88
2018-09-05T16:10:17.825Z,94813.62
2018-09-05T16:12:47.593Z,94814.35
2018-09-05T16:15:17.372Z,94809.11
2018-09-05T16:17:47.172Z,94812.02
2018-09-05T16:20:16.935Z,94816.55
2018-09-05T16:22:46.775Z,94823.98
2018-09-05T16:25:16.635Z,94819.58
2018-09-05T16:27:46.333Z,94819.92
2018-09-05T16:30:16.072Z,94817.22
2018-09-05T16:32:45.918Z,94812.48
2018-09-05T16:35:15.659Z,94813.80
2018-09-05T16:37:45.376Z,94818.58
2018-09-05T16:40:15.243Z,94815.61
2018-09-05T16:42:45.076Z,94820.39
2018-09-05T16:45:14.975Z,94822.33
2018-09-05T16:47:44.750Z,94817.28
2018-09-05T16:50:14.681Z,94824.92
2018-09-05T16:52:44.562Z,94819.42
2018-09-05T16:55:14.722Z,94823.56
2018-09-05T16:57:44.705Z,94828.95
2018-09-05T17:00:14.528Z,94827.29
2018-09-05T17:02:44.212Z,94832.13
2018-09-05T17:05:13.985Z,94858.80
2018-09-05T17:07:43.872Z,94848.12
2018-09-05T17:10:13.784Z,94849.11
2018-09-05T17:12:43.602Z,94851.44
2018-09-05T17:15:13.174Z,94847.74
2018-09-05T17:17:42.808Z,94859.11
2018-09-05T17:20:12.500Z,94857.63
2018-09-05T17:22:42.258Z,94854.13
2018-09-05T17:25:12.013Z,94861.38
2018-09-05T17:27:41.850Z,94857.69
2018-09-05T17:30:11.616Z,94861.05
2018-09-05T17:32:41.446Z,94862.45
2018-09-05T17:35:11.333Z,94862.00
2018-09-05T17:37:41.254Z,94860.12
2018-09-05T17:40:11.056Z,94861.95
2018-09-05T17:42:40.927Z,94869.16
2018-09-05T17:45:10.788Z,94873.94
2018-09-05T17:47:40.760Z,94872.14
2018-09-05T17:50:10.631Z,94880.02
2018-09-05T17:52:40.490Z,94879.92
2018-09-05T17:55:10.347Z,94893.80
2018-09-05T17:57:40.568Z,94890.56
2018-09-05T18:00:10.496Z,94890.09
2018-09-05T18:02:40.358Z,94889.70
2018-09-05T18:05:10.215Z,94896.20
2018-09-05T18:07:40.128Z,94896.19
2018-09-05T18:10:09.964Z,94904.53
2018-09-05T18:12:39.681Z,94906.11
2018-09-05T18:15:09.770Z,94906.72
2018-09-05T18:17:39.441Z,94905.53
2018-09-05T18:20:09.243Z,94902.59
2018-09-05T18:22:39.578Z,94907.44
2018-09-05T18:25:10.199Z,94905.79
2018-09-05T18:27:40.387Z,94909.83
2018-09-05T18:30:10.939Z,94916.73
2018-09-05T18:32:42.003Z,94908.01
2018-09-05T18:35:12.642Z,94919.16
2018-09-05T18:37:43.503Z,94913.95
2018-09-05T18:40:13.832Z,94918.81
2018-09-05T18:42:45.076Z,94921.97
2018-09-05T18:45:15.542Z,94922.77
2018-09-05T18:47:46.129Z,94923.20
2018-09-05T18:50:16.870Z,94924.86
2018-09-05T18:52:48.596Z,94920.51
2018-09-05T18:55:18.839Z,94921.17
2018-09-05T18:57:49.110Z,94926.28
2018-09-05T19:00:18.892Z,94924.94
2018-09-05T19:02:49.519Z,94925.44
2018-09-05T19:05:19.543Z,94931.33
2018-09-05T19:07:50.041Z,94932.83
2018-09-05T19:10:20.834Z,94928.38
2018-09-05T19:12:51.782Z,94922.86
2018-09-05T19:15:21.638Z,94935.02
2018-09-05T19:17:51.554Z,94886.63
2018-09-05T19:20:21.893Z,94932.47
2018-09-05T19:22:51.878Z,94933.95
2018-09-05T19:25:21.720Z,94929.10
2018-09-05T19:27:51.530Z,94932.03
2018-09-05T19:30:21.307Z,94934.97
2018-09-05T19:32:51.256Z,94934.00
2018-09-05T19:35:21.780Z,94927.82
2018-09-05T19:37:52.456Z,94925.12
2018-09-05T19:40:23.221Z,94922.61
2018-09-05T19:42:53.947Z,94918.60
2018-09-05T19:45:23.772Z,94911.54
2018-09-05T19:47:53.485Z,94911.20
2018-09-05T19:50:23.301Z,94914.13
2018-09-05T19:52:53.039Z,94909.66
2018-09-05T19:55:22.918Z,94913.06
2018-09-05T19:57:53.128Z,94907.13
2018-09-05T20:00:22.884Z,94907.81
2018-09-05T20:02:52.719Z,94904.67
2018-09-05T20:05:22.426Z,94899.08
2018-09-05T20:07:52.238Z,94906.51
2018-09-05T20:10:22.367Z,94900.20
2018-09-05T20:12:52.645Z,94904.00
2018-09-05T20:15:22.948Z,94909.29
2018-09-05T20:17:53.449Z,94912.27
2018-09-05T20:20:23.953Z,94900.94
2018-09-05T20:22:54.353Z,94904.81
2018-09-05T20:25:24.915Z,94907.97
2018-09-05T20:27:55.527Z,94906.48
2018-09-05T20:30:26.218Z,94901.59
2018-09-05T20:32:57.592Z,94905.52
2018-09-05T20:35:28.111Z,94906.94
2018-09-05T20:37:58.234Z,94917.17
2018-09-05T20:40:28.530Z,94916.73
2018-09-05T20:43:00.179Z,94912.31
2018-09-05T20:45:30.838Z,94913.92
2018-09-05T20:48:01.912Z,94907.09
2018-09-05T20:50:32.512Z,94900.59
2018-09-05T20:53:03.959Z,94910.80
2018-09-05T20:55:34.302Z,94901.13
2018-09-05T20:58:04.906Z,94897.39
2018-09-05T21:00:35.244Z,94907.12
2018-09-05T21:03:06.607Z,94904.31
2018-09-05T21:05:37.027Z,94902.38
2018-09-05T21:08:07.945Z,94911.02
2018-09-05T21:10:38.214Z,94911.16
2018-09-05T21:13:08.624Z,94911.31
2018-09-05T21:15:38.959Z,94913.88
2018-09-05T21:18:09.790Z,94921.59
2018-09-05T21:20:40.521Z,94920.17
2018-09-05T21:23:11.519Z,94923.58
2018-09-05T21:25:42.016Z,94923.03
2018-09-05T21:28:11.731Z,94922.58
2018-09-05T21:30:42.489Z,94925.44
2018-09-05T21:33:14.158Z,94919.53
2018-09-05T21:35:44.807Z,94920.34
2018-09-05T21:38:15.051Z,94924.66
2018-09-05T21:40:45.906Z,94921.45
2018-09-05T21:43:17.095Z,94918.16
2018-09-05T21:45:47.572Z,94912.76
2018-09-05T21:48:18.267Z,94921.34
2018-09-05T21:50:48.028Z,94924.31
2018-09-05T21:53:18.964Z,94912.76
2018-09-05T21:55:49.455Z,94921.88
2018-09-05T21:58:19.810Z,94919.57
2018-09-05T22:00:50.445Z,94911.34
2018-09-05T22:03:20.582Z,94912.91
2018-09-05T22:05:50.252Z,94914.90
2018-09-05T22:08:20.123Z,94914.05
2018-09-05T22:10:50.037Z,94916.95
2018-09-05T22:13:19.989Z,94910.34
2018-09-05T22:15:49.792Z,94911.69
2018-09-05T22:18:19.659Z,94912.80
2018-09-05T22:20:49.516Z,94904.34
2018-09-05T22:23:19.226Z,94903.27
2018-09-05T22:25:49.118Z,94909.27
2018-09-05T22:28:18.899Z,94904.75
2018-09-05T22:30:48.658Z,94907.59
2018-09-05T22:33:18.437Z,94907.20
2018-09-05T22:35:48.243Z,94905.20
2018-09-05T22:38:18.124Z,94902.59
2018-09-05T22:40:54.935Z,94902.06
2018-09-05T22:43:37.247Z,94910.16
2018-09-05T22:46:17.747Z,94907.59
2018-09-05T22:48:58.220Z,94917.91
2018-09-05T22:52:13.697Z,94918.78
2018-09-05T22:57:07.095Z,94914.10
2018-09-05T23:00:23.955Z,94921.12
2018-09-05T23:03:10.137Z,94915.26
2018-09-05T23:06:04.158Z,94921.70
2018-09-05T23:08:40.799Z,94929.09
2018-09-05T23:12:23.182Z,94915.38
2018-09-05T23:15:04.088Z,94913.91
2018-09-05T23:17:44.600Z,94916.31
2018-09-05T23:20:42.889Z,94918.25
2018-09-05T23:23:23.440Z,94920.05
2018-09-05T23:25:53.113Z,94918.91
2018-09-05T23:28:22.935Z,94918.55
2018-09-05T23:30:52.752Z,94924.08
2018-09-05T23:33:22.535Z,94920.25
2018-09-05T23:35:52.295Z,94909.91
2018-09-05T23:38:22.055Z,94912.32
2018-09-05T23:40:51.713Z,94915.87
2018-09-05T23:43:21.436Z,94916.06
2018-09-05T23:45:51.276Z,94911.67
2018-09-05T23:48:21.238Z,94908.04
2018-09-05T23:50:51.153Z,94905.83
2018-09-05T23:53:20.925Z,94911.91
2018-09-05T23:55:50.671Z,94912.30
2018-09-05T23:58:20.479Z,94917.22
